createdAt,value
2022-09-10T00:01:25.032Z,12.68
2022-09-10T00:03:53.494Z,14.60
2022-09-10T00:06:21.327Z,13.55
2022-09-10T00:08:49.128Z,13.00
2022-09-10T00:11:15.909Z,14.13
2022-09-10T00:13:45.569Z,11.35
2022-09-10T00:16:14.606Z,12.85
2022-09-10T00:18:41.833Z,13.05
2022-09-10T00:21:11.829Z,14.52
2022-09-10T00:23:38.534Z,12.23
2022-09-10T00:26:19.160Z,12.32
2022-09-10T00:28:49.027Z,13.70
2022-09-10T00:31:15.910Z,13.52
2022-09-10T00:33:42.686Z,12.63
2022-09-10T00:36:21.663Z,11.20
2022-09-10T00:38:52.260Z,9.40
2022-09-10T00:41:21.788Z,9.40
2022-09-10T00:43:50.904Z,12.70
2022-09-10T00:46:33.439Z,10.48
2022-09-10T00:49:03.596Z,10.85
2022-09-10T00:51:35.002Z,8.23
2022-09-10T00:54:03.014Z,8.23
2022-09-10T00:56:29.978Z,9.00
2022-09-10T00:58:56.787Z,9.77
2022-09-10T01:01:23.352Z,8.30
2022-09-10T01:03:53.671Z,8.23
2022-09-10T01:06:20.416Z,8.75
2022-09-10T01:08:46.893Z,9.68
2022-09-10T01:11:23.140Z,8.73
2022-09-10T01:13:52.344Z,10.52
2022-09-10T01:16:27.902Z,12.73
2022-09-10T01:19:07.417Z,9.85
2022-09-10T01:22:02.719Z,10.68
2022-09-10T01:24:43.927Z,10.05
2022-09-10T01:27:41.466Z,10.45
2022-09-10T01:30:24.402Z,9.73
2022-09-10T01:33:00.784Z,9.85
2022-09-10T01:35:40.145Z,10.85
2022-09-10T01:38:14.025Z,10.18
2022-09-10T01:40:43.810Z,10.88
2022-09-10T01:43:11.713Z,10.05
2022-09-10T01:45:59.363Z,11.23
2022-09-10T01:48:44.233Z,10.45
2022-09-10T01:51:34.498Z,11.23
2022-09-10T01:54:26.265Z,11.18
2022-09-10T01:57:06.137Z,10.98
2022-09-10T01:59:42.278Z,11.75
2022-09-10T02:02:53.700Z,9.30
2022-09-10T02:05:23.645Z,10.18
2022-09-10T02:07:56.962Z,10.25
2022-09-10T02:10:23.893Z,12.45
2022-09-10T02:12:50.380Z,10.32
2022-09-10T02:15:18.827Z,9.98
2022-09-10T02:17:46.579Z,10.85
2022-09-10T02:20:14.808Z,11.50
2022-09-10T02:22:58.619Z,11.70
2022-09-10T02:25:31.651Z,12.32
2022-09-10T02:27:58.581Z,10.60
2022-09-10T02:30:25.019Z,11.95
2022-09-10T02:32:51.345Z,11.32
2022-09-10T02:35:18.102Z,12.15
2022-09-10T02:37:45.127Z,12.10
2022-09-10T02:40:12.001Z,11.70
2022-09-10T02:42:38.403Z,11.63
2022-09-10T02:45:05.430Z,10.48
2022-09-10T02:47:34.923Z,11.40
2022-09-10T02:50:03.706Z,10.55
2022-09-10T02:52:30.135Z,13.65
2022-09-10T02:55:00.019Z,12.73
2022-09-10T02:57:27.185Z,9.65
2022-09-10T02:59:56.816Z,10.73
2022-09-10T03:02:23.662Z,14.70
2022-09-10T03:04:50.022Z,15.15
2022-09-10T03:07:20.156Z,15.88
2022-09-10T03:09:47.145Z,13.70
2022-09-10T03:12:15.773Z,16.40
2022-09-10T03:14:43.274Z,16.00
2022-09-10T03:17:09.860Z,14.60
2022-09-10T03:19:36.595Z,16.88
2022-09-10T03:22:03.490Z,16.67
2022-09-10T03:24:29.877Z,17.20
2022-09-10T03:26:59.309Z,16.38
2022-09-10T03:29:26.285Z,16.02
2022-09-10T03:31:52.702Z,17.17
2022-09-10T03:34:19.054Z,18.65
2022-09-10T03:36:47.224Z,17.50
2022-09-10T03:39:15.285Z,17.15
2022-09-10T03:41:42.062Z,16.77
2022-09-10T03:44:08.667Z,17.83
2022-09-10T03:46:35.086Z,18.13
2022-09-10T03:49:02.330Z,17.48
2022-09-10T03:51:29.495Z,17.63
2022-09-10T03:53:55.855Z,18.25
2022-09-10T03:56:22.395Z,17.27
2022-09-10T03:58:51.961Z,16.25
2022-09-10T04:01:19.741Z,15.30
2022-09-10T04:03:49.999Z,18.75
2022-09-10T04:06:17.824Z,19.58
2022-09-10T04:08:46.724Z,19.08
2022-09-10T04:11:14.044Z,18.30
2022-09-10T04:13:40.501Z,16.60
2022-09-10T04:16:07.155Z,18.23
2022-09-10T04:18:34.193Z,17.80
2022-09-10T04:21:00.850Z,15.45
2022-09-10T04:23:27.183Z,18.88
2022-09-10T04:25:53.561Z,17.27
2022-09-10T04:28:20.088Z,18.27
2022-09-10T04:30:48.030Z,14.18
2022-09-10T04:33:14.360Z,17.15
2022-09-10T04:35:40.801Z,17.80
2022-09-10T04:38:08.008Z,17.58
2022-09-10T04:40:34.683Z,18.80
2022-09-10T04:43:01.766Z,18.27
2022-09-10T04:45:28.830Z,15.70
2022-09-10T04:47:55.933Z,17.85
2022-09-10T04:50:22.799Z,19.00
2022-09-10T04:52:49.174Z,17.92
2022-09-10T04:55:15.635Z,18.13
2022-09-10T04:57:42.196Z,16.15
2022-09-10T05:00:10.886Z,20.40
2022-09-10T05:02:37.561Z,16.50
2022-09-10T05:05:04.421Z,17.70
2022-09-10T05:07:30.883Z,16.92
2022-09-10T05:09:57.538Z,15.80
2022-09-10T05:12:24.147Z,18.83
2022-09-10T05:14:50.508Z,16.10
2022-09-10T05:17:17.036Z,18.30
2022-09-10T05:19:43.518Z,18.48
2022-09-10T05:22:10.104Z,15.38
2022-09-10T05:24:36.645Z,17.73
2022-09-10T05:27:03.401Z,17.00
2022-09-10T05:29:30.777Z,14.68
2022-09-10T05:31:57.143Z,17.05
2022-09-10T05:34:24.575Z,15.80
2022-09-10T05:36:50.892Z,15.63
2022-09-10T05:39:26.490Z,14.45
2022-09-10T05:41:55.419Z,16.10
2022-09-10T05:44:21.829Z,15.50
2022-09-10T05:46:48.489Z,15.05
2022-09-10T05:49:15.196Z,14.27
2022-09-10T05:51:41.593Z,14.00
2022-09-10T05:54:08.109Z,13.77
2022-09-10T05:56:34.744Z,14.02
2022-09-10T05:59:01.366Z,11.30
2022-09-10T06:01:29.119Z,13.80
2022-09-10T06:03:56.128Z,14.40
2022-09-10T06:06:22.476Z,13.88
2022-09-10T06:08:51.916Z,13.23
2022-09-10T06:11:18.271Z,13.88
2022-09-10T06:13:44.642Z,13.98
2022-09-10T06:16:14.356Z,13.38
2022-09-10T06:18:44.232Z,12.50
2022-09-10T06:21:16.514Z,12.90
2022-09-10T06:23:44.641Z,12.57
2022-09-10T06:26:17.015Z,13.75
2022-09-10T06:28:47.992Z,12.82
2022-09-10T06:31:17.165Z,14.43
2022-09-10T06:33:44.466Z,13.20
2022-09-10T06:36:11.301Z,13.70
2022-09-10T06:38:37.823Z,14.00
2022-09-10T06:41:07.059Z,14.10
2022-09-10T06:43:36.772Z,13.77
2022-09-10T06:46:34.741Z,14.98
2022-09-10T06:49:04.222Z,13.43
2022-09-10T06:51:31.221Z,15.02
2022-09-10T06:53:57.785Z,14.18
2022-09-10T06:56:24.583Z,15.15
2022-09-10T06:58:51.639Z,13.18
2022-09-10T07:01:20.580Z,13.57
2022-09-10T07:03:47.421Z,15.60
2022-09-10T07:06:17.975Z,16.38
2022-09-10T07:08:44.744Z,23.05
2022-09-10T07:11:13.490Z,16.38
2022-09-10T07:13:40.611Z,14.50
2022-09-10T07:16:07.623Z,14.88
2022-09-10T07:18:34.498Z,15.23
2022-09-10T07:21:13.021Z,16.17
2022-09-10T07:23:40.402Z,15.48
2022-09-10T07:26:10.046Z,16.00
2022-09-10T07:28:37.818Z,15.85
2022-09-10T07:31:18.329Z,16.30
2022-09-10T07:33:45.570Z,16.25
2022-09-10T07:36:14.486Z,15.80
2022-09-10T07:38:44.758Z,16.63
2022-09-10T07:41:13.264Z,16.95
2022-09-10T07:43:43.867Z,15.13
2022-09-10T07:46:13.841Z,16.05
2022-09-10T07:48:41.486Z,15.80
2022-09-10T07:51:09.028Z,15.90
2022-09-10T07:53:35.850Z,15.27
2022-09-10T07:56:04.674Z,15.32
2022-09-10T07:58:32.446Z,16.05
2022-09-10T08:00:59.860Z,16.02
2022-09-10T08:03:27.449Z,16.40
2022-09-10T08:05:54.086Z,14.95
2022-09-10T08:08:31.615Z,15.10
2022-09-10T08:11:11.921Z,17.10
2022-09-10T08:13:42.462Z,15.57
2022-09-10T08:16:10.684Z,15.93
2022-09-10T08:18:37.391Z,13.57
2022-09-10T08:21:05.000Z,15.27
2022-09-10T08:23:31.781Z,14.40
2022-09-10T08:25:58.226Z,14.88
2022-09-10T08:28:27.166Z,13.23
2022-09-10T08:30:56.959Z,15.18
2022-09-10T08:33:24.437Z,14.60
2022-09-10T08:35:58.793Z,12.35
2022-09-10T08:38:29.528Z,14.05
2022-09-10T08:40:57.254Z,12.93
2022-09-10T08:43:42.490Z,12.80
2022-09-10T08:46:20.424Z,13.63
2022-09-10T08:48:55.073Z,12.23
2022-09-10T08:51:34.852Z,10.65
2022-09-10T08:54:08.467Z,11.63
2022-09-10T08:56:34.900Z,11.50
2022-09-10T08:59:09.115Z,12.32
2022-09-10T09:01:42.438Z,9.82
2022-09-10T09:04:37.017Z,9.00
2022-09-10T09:07:12.618Z,9.57
2022-09-10T09:09:39.027Z,9.00
2022-09-10T09:12:15.605Z,8.48
2022-09-10T09:15:00.272Z,9.27
2022-09-10T09:17:41.193Z,10.15
2022-09-10T09:20:15.429Z,9.30
2022-09-10T09:22:51.870Z,10.57
2022-09-10T09:25:24.412Z,9.75
2022-09-10T09:27:58.094Z,8.77
2022-09-10T09:30:31.931Z,7.55
2022-09-10T09:33:04.744Z,8.13
2022-09-10T09:35:36.476Z,8.90
2022-09-10T09:38:20.777Z,9.35
2022-09-10T09:40:56.544Z,9.23
2022-09-10T09:43:35.065Z,10.90
2022-09-10T09:46:02.655Z,10.45
2022-09-10T09:48:37.797Z,11.90
2022-09-10T09:51:04.961Z,12.15
2022-09-10T09:53:31.643Z,11.73
2022-09-10T09:56:01.262Z,11.95
2022-09-10T09:58:30.761Z,13.13
2022-09-10T10:01:03.507Z,10.65
2022-09-10T10:03:48.317Z,10.80
2022-09-10T10:06:15.992Z,10.38
2022-09-10T10:08:51.961Z,11.13
2022-09-10T10:11:21.185Z,11.30
2022-09-10T10:13:50.443Z,10.57
2022-09-10T10:16:35.532Z,10.75
2022-09-10T10:19:02.207Z,7.75
2022-09-10T10:21:31.409Z,8.73
2022-09-10T10:24:00.918Z,8.95
2022-09-10T10:26:30.555Z,8.13
2022-09-10T10:29:06.462Z,12.60
2022-09-10T10:31:44.988Z,9.38
2022-09-10T10:34:40.059Z,8.05
2022-09-10T10:37:30.812Z,6.15
2022-09-10T10:40:26.484Z,4.57
2022-09-10T10:43:24.567Z,3.97
2022-09-10T10:45:59.670Z,4.72
2022-09-10T10:48:47.213Z,4.32
2022-09-10T10:51:39.792Z,4.63
2022-09-10T10:54:31.202Z,4.35
2022-09-10T10:57:17.844Z,3.80
2022-09-10T11:00:10.304Z,4.35
2022-09-10T11:02:50.443Z,2.97
2022-09-10T11:05:23.995Z,3.40
2022-09-10T11:07:50.434Z,3.42
2022-09-10T11:10:31.553Z,2.35
2022-09-10T11:13:16.387Z,3.08
2022-09-10T11:15:53.333Z,3.20
2022-09-10T11:18:35.664Z,3.45
2022-09-10T11:21:12.250Z,3.60
2022-09-10T11:23:38.498Z,4.15
2022-09-10T11:26:12.564Z,4.43
2022-09-10T11:29:04.309Z,3.55
2022-09-10T11:34:10.264Z,3.15
2022-09-10T11:36:47.090Z,3.35
2022-09-10T11:39:24.010Z,4.68
2022-09-10T11:41:52.545Z,3.47
2022-09-10T11:44:25.011Z,7.15
2022-09-10T11:47:06.939Z,5.65
2022-09-10T11:50:00.660Z,4.32
2022-09-10T11:52:31.264Z,4.50
2022-09-10T11:54:58.551Z,3.17
2022-09-10T11:57:40.221Z,4.25
2022-09-10T12:03:20.437Z,3.97
2022-09-10T12:06:09.257Z,5.18
2022-09-10T12:09:01.413Z,5.13
2022-09-10T12:12:06.816Z,4.43
2022-09-10T12:14:33.293Z,4.80
2022-09-10T12:17:08.636Z,4.25
2022-09-10T12:19:39.995Z,5.55
2022-09-10T12:22:17.207Z,4.88
2022-09-10T12:24:52.534Z,5.15
2022-09-10T12:27:20.147Z,5.80
2022-09-10T12:29:47.182Z,5.32
2022-09-10T12:32:15.227Z,5.53
2022-09-10T12:34:41.941Z,4.15
2022-09-10T12:37:11.059Z,4.65
2022-09-10T12:39:37.902Z,5.80
2022-09-10T12:42:34.259Z,5.13
2022-09-10T12:45:00.973Z,3.53
2022-09-10T12:47:42.030Z,4.22
2022-09-10T12:50:25.176Z,3.60
2022-09-10T12:52:51.494Z,2.97
2022-09-10T12:55:53.637Z,3.33
2022-09-10T12:58:26.827Z,4.47
2022-09-10T13:00:55.947Z,4.22
2022-09-10T13:03:25.032Z,4.00
2022-09-10T13:05:54.626Z,3.58
2022-09-10T13:08:28.905Z,2.72
2022-09-10T13:10:56.321Z,3.88
2022-09-10T13:13:40.098Z,3.10
2022-09-10T13:16:14.560Z,3.30
2022-09-10T13:18:42.049Z,3.13
2022-09-10T13:21:23.625Z,3.30
2022-09-10T13:26:37.356Z,2.60
2022-09-10T13:29:11.281Z,2.67
2022-09-10T13:31:46.865Z,3.00
2022-09-10T13:34:14.227Z,3.35
2022-09-10T13:37:22.990Z,3.13
2022-09-10T13:40:26.813Z,2.35
2022-09-10T13:43:11.865Z,2.58
2022-09-10T13:46:00.703Z,2.95
2022-09-10T13:48:30.761Z,3.00
2022-09-10T13:51:40.182Z,2.58
2022-09-10T13:54:16.731Z,3.22
2022-09-10T13:56:46.414Z,3.13
2022-09-10T13:59:24.150Z,2.45
2022-09-10T14:01:54.334Z,2.45
2022-09-10T14:04:27.590Z,2.42
2022-09-10T14:07:13.082Z,3.40
2022-09-10T14:09:53.506Z,3.78
2022-09-10T14:12:26.046Z,3.25
2022-09-10T14:14:56.843Z,4.18
2022-09-10T14:17:28.754Z,4.10
2022-09-10T14:20:05.200Z,3.72
2022-09-10T14:22:31.999Z,3.70
2022-09-10T14:25:01.592Z,3.45
2022-09-10T14:27:36.385Z,4.30
2022-09-10T14:30:18.287Z,7.03
2022-09-10T14:32:46.257Z,7.72
2022-09-10T14:35:51.679Z,4.65
2022-09-10T14:38:38.940Z,3.80
2022-09-10T14:41:17.603Z,3.30
2022-09-10T14:43:45.576Z,2.40
2022-09-10T14:46:32.901Z,2.65
2022-09-10T14:49:01.248Z,4.15
2022-09-10T14:51:28.407Z,3.55
2022-09-10T14:53:57.277Z,3.88
2022-09-10T14:56:38.644Z,4.55
2022-09-10T14:59:22.883Z,3.53
2022-09-10T15:01:49.513Z,4.25
2022-09-10T15:04:18.825Z,6.30
2022-09-10T15:06:45.359Z,6.00
2022-09-10T15:09:14.969Z,3.38
2022-09-10T15:11:58.932Z,2.67
2022-09-10T15:14:25.926Z,2.92
2022-09-10T15:16:52.611Z,3.40
2022-09-10T15:19:19.824Z,3.05
2022-09-10T15:21:46.909Z,2.55
2022-09-10T15:24:15.653Z,3.20
2022-09-10T15:26:44.391Z,3.70
2022-09-10T15:29:11.208Z,2.90
2022-09-10T15:31:38.442Z,3.08
2022-09-10T15:34:15.118Z,4.30
2022-09-10T15:36:41.530Z,13.48
2022-09-10T15:39:11.930Z,6.43
2022-09-10T15:41:44.038Z,2.65
2022-09-10T15:44:15.869Z,3.05
2022-09-10T15:46:45.056Z,3.10
2022-09-10T15:49:14.347Z,3.10
2022-09-10T15:51:41.274Z,3.05
2022-09-10T15:54:09.899Z,2.50
2022-09-10T15:56:36.601Z,2.58
2022-09-10T15:59:05.701Z,2.92
2022-09-10T16:01:33.982Z,3.55
2022-09-10T16:04:04.485Z,5.03
2022-09-10T16:06:39.149Z,3.28
2022-09-10T16:09:11.745Z,3.08
2022-09-10T16:11:46.013Z,2.33
2022-09-10T16:14:14.563Z,2.42
2022-09-10T16:16:41.852Z,1.75
2022-09-10T16:19:09.093Z,3.42
2022-09-10T16:21:37.054Z,3.88
2022-09-10T16:24:05.035Z,3.75
2022-09-10T16:26:35.250Z,2.92
2022-09-10T16:29:06.425Z,2.80
2022-09-10T16:31:35.336Z,3.15
2022-09-10T16:34:04.656Z,3.08
2022-09-10T16:36:37.026Z,2.97
2022-09-10T16:39:07.159Z,3.13
2022-09-10T16:41:33.499Z,2.95
2022-09-10T16:44:00.663Z,3.28
2022-09-10T16:46:28.185Z,3.83
2022-09-10T16:48:56.090Z,2.97
2022-09-10T16:51:24.262Z,2.65
2022-09-10T16:54:02.255Z,2.97
2022-09-10T16:56:46.047Z,3.95
2022-09-10T16:59:23.436Z,3.10
2022-09-10T17:01:52.091Z,2.75
2022-09-10T17:04:28.806Z,3.28
2022-09-10T17:06:59.063Z,3.20
2022-09-10T17:09:26.002Z,3.38
2022-09-10T17:11:53.244Z,4.32
2022-09-10T17:14:22.921Z,3.33
2022-09-10T17:16:49.836Z,3.47
2022-09-10T17:19:19.899Z,3.80
2022-09-10T17:21:51.286Z,3.60
2022-09-10T17:26:45.998Z,3.50
2022-09-10T17:29:15.528Z,3.85
2022-09-10T17:31:43.192Z,2.70
2022-09-10T17:34:13.688Z,3.92
2022-09-10T17:36:42.258Z,3.28
2022-09-10T17:39:08.723Z,3.10
2022-09-10T17:41:35.111Z,4.05
2022-09-10T17:44:02.472Z,2.97
2022-09-10T17:46:31.022Z,3.90
2022-09-10T17:49:00.835Z,3.50
2022-09-10T17:51:32.133Z,4.03
2022-09-10T17:53:59.008Z,3.33
2022-09-10T17:56:26.548Z,2.97
2022-09-10T17:59:01.728Z,3.95
2022-09-10T18:01:34.367Z,3.60
2022-09-10T18:04:01.011Z,3.70
2022-09-10T18:06:29.092Z,3.60
2022-09-10T18:09:00.778Z,4.47
2022-09-10T18:11:30.086Z,4.30
2022-09-10T18:13:59.283Z,3.33
2022-09-10T18:16:27.936Z,4.03
2022-09-10T18:19:13.873Z,4.13
2022-09-10T18:21:42.019Z,4.43
2022-09-10T18:24:17.391Z,3.95
2022-09-10T18:26:46.421Z,4.18
2022-09-10T18:29:13.937Z,5.78
2022-09-10T18:31:43.094Z,5.32
2022-09-10T18:34:12.899Z,6.07
2022-09-10T18:36:39.745Z,9.88
2022-09-10T18:39:10.538Z,6.45
2022-09-10T18:41:38.587Z,5.22
2022-09-10T18:44:07.973Z,5.95
2022-09-10T18:46:35.644Z,5.40
2022-09-10T18:49:02.774Z,4.80
2022-09-10T18:51:30.144Z,5.45
2022-09-10T18:54:01.005Z,6.05
2022-09-10T18:56:29.848Z,5.43
2022-09-10T18:59:02.946Z,6.35
2022-09-10T19:01:30.965Z,5.18
2022-09-10T19:03:57.983Z,5.20
2022-09-10T19:06:27.492Z,5.68
2022-09-10T19:08:59.230Z,5.50
2022-09-10T19:11:30.249Z,5.93
2022-09-10T19:13:57.190Z,6.90
2022-09-10T19:16:27.107Z,5.68
2022-09-10T19:18:58.936Z,6.00
2022-09-10T19:21:26.951Z,6.25
2022-09-10T19:23:59.366Z,6.53
2022-09-10T19:26:28.097Z,6.85
2022-09-10T19:28:57.425Z,5.93
2022-09-10T19:31:25.789Z,8.40
2022-09-10T19:33:57.142Z,7.43
2022-09-10T19:36:25.237Z,7.45
2022-09-10T19:38:51.831Z,7.25
2022-09-10T19:41:18.723Z,6.72
2022-09-10T19:43:49.009Z,6.93
2022-09-10T19:46:17.067Z,6.78
2022-09-10T19:48:43.994Z,8.07
2022-09-10T19:51:13.413Z,7.85
2022-09-10T19:53:44.019Z,8.07
2022-09-10T19:56:20.761Z,8.50
2022-09-10T19:58:50.522Z,7.70
2022-09-10T20:01:22.424Z,9.73
2022-09-10T20:03:50.593Z,9.60
2022-09-10T20:06:19.450Z,10.32
2022-09-10T20:08:48.009Z,7.35
2022-09-10T20:11:17.571Z,8.77
2022-09-10T20:13:45.111Z,7.72
2022-09-10T20:16:12.503Z,8.30
2022-09-10T20:18:39.074Z,9.23
2022-09-10T20:21:27.270Z,9.90
2022-09-10T20:23:57.967Z,9.50
2022-09-10T20:26:29.743Z,11.50
2022-09-10T20:31:29.108Z,8.77
2022-09-10T20:33:57.129Z,7.78
2022-09-10T20:36:26.607Z,7.97
2022-09-10T20:38:54.160Z,8.45
2022-09-10T20:41:20.814Z,8.20
2022-09-10T20:43:51.668Z,8.32
2022-09-10T20:46:22.590Z,7.82
2022-09-10T20:48:51.898Z,9.75
2022-09-10T20:51:20.087Z,8.90
2022-09-10T20:53:47.103Z,9.75
2022-09-10T20:56:17.720Z,9.82
2022-09-10T20:58:45.706Z,9.10
2022-09-10T21:01:13.342Z,9.18
2022-09-10T21:03:41.223Z,8.90
2022-09-10T21:06:12.517Z,8.55
2022-09-10T21:08:40.807Z,8.45
2022-09-10T21:11:09.982Z,8.50
2022-09-10T21:13:37.827Z,8.88
2022-09-10T21:16:19.208Z,7.47
2022-09-10T21:18:54.341Z,7.70
2022-09-10T21:21:25.159Z,8.40
2022-09-10T21:23:53.664Z,7.75
2022-09-10T21:26:23.819Z,8.27
2022-09-10T21:28:53.498Z,8.27
2022-09-10T21:31:22.463Z,10.00
2022-09-10T21:33:48.884Z,8.68
2022-09-10T21:36:17.989Z,10.13
2022-09-10T21:38:53.271Z,9.93
2022-09-10T21:41:33.468Z,10.13
2022-09-10T21:44:02.907Z,9.23
2022-09-10T21:46:29.657Z,11.38
2022-09-10T21:48:56.338Z,14.98
2022-09-10T21:51:23.040Z,13.18
2022-09-10T21:53:56.299Z,11.70
2022-09-10T21:56:25.936Z,9.48
2022-09-10T21:58:53.577Z,11.50
2022-09-10T22:01:24.162Z,10.18
2022-09-10T22:03:54.942Z,9.50
2022-09-10T22:06:24.407Z,10.07
2022-09-10T22:08:53.189Z,10.05
2022-09-10T22:11:24.298Z,9.82
2022-09-10T22:13:53.212Z,9.85
2022-09-10T22:16:20.761Z,10.90
2022-09-10T22:18:47.194Z,10.70
2022-09-10T22:21:13.585Z,8.50
2022-09-10T22:23:40.110Z,10.05
2022-09-10T22:26:18.254Z,10.75
2022-09-10T22:28:45.139Z,9.82
2022-09-10T22:31:14.326Z,10.32
2022-09-10T22:33:42.848Z,9.95
2022-09-10T22:36:10.223Z,11.65
2022-09-10T22:38:36.724Z,10.65
2022-09-10T22:41:07.127Z,11.15
2022-09-10T22:43:35.323Z,10.25
2022-09-10T22:46:01.821Z,10.05
2022-09-10T22:48:28.204Z,12.18
2022-09-10T22:50:55.262Z,13.55
2022-09-10T22:53:21.739Z,12.55
2022-09-10T22:55:48.123Z,13.00
2022-09-10T22:58:14.789Z,13.43
2022-09-10T23:00:41.100Z,11.18
2022-09-10T23:03:07.541Z,12.70
2022-09-10T23:05:35.210Z,11.73
2022-09-10T23:08:01.752Z,12.45
2022-09-10T23:10:28.097Z,12.38
2022-09-10T23:12:57.250Z,12.68
2022-09-10T23:15:23.632Z,14.52
2022-09-10T23:17:50.006Z,14.23
2022-09-10T23:20:16.493Z,14.07
2022-09-10T23:22:42.801Z,13.75
2022-09-10T23:25:09.580Z,14.77
2022-09-10T23:27:38.658Z,12.75
2022-09-10T23:30:05.903Z,12.70
2022-09-10T23:32:32.230Z,12.10
2022-09-10T23:35:00.291Z,12.27
2022-09-10T23:37:26.671Z,12.57
2022-09-10T23:39:53.068Z,10.65
2022-09-10T23:42:22.569Z,11.32
2022-09-10T23:44:48.891Z,11.88
2022-09-10T23:47:15.211Z,11.38
2022-09-10T23:49:41.550Z,12.40
2022-09-10T23:52:08.143Z,13.02
2022-09-10T23:54:35.121Z,11.93
2022-09-10T23:57:02.719Z,10.38
2022-09-10T23:59:29.163Z,10.38
